sensor_id;sensor_type;location;lat;lon;timestamp;temperature;humidity
580;DHT22;276;48.392;9.950;2022-11-15T00:00:53;11.20;99.90
580;DHT22;276;48.392;9.950;2022-11-15T00:03:21;11.20;99.90
580;DHT22;276;48.392;9.950;2022-11-15T00:05:49;11.20;99.90
580;DHT22;276;48.392;9.950;2022-11-15T00:08:17;11.20;99.90
580;DHT22;276;48.392;9.950;2022-11-15T00:11:06;11.20;99.90
580;DHT22;276;48.392;9.950;2022-11-15T00:13:31;11.10;99.90
580;DHT22;276;48.392;9.950;2022-11-15T00:15:59;11.10;99.90
580;DHT22;276;48.392;9.950;2022-11-15T00:18:25;11.10;99.90
580;DHT22;276;48.392;9.950;2022-11-15T00:20:53;11.10;99.90
580;DHT22;276;48.392;9.950;2022-11-15T00:23:18;11.10;99.90
580;DHT22;276;48.392;9.950;2022-11-15T00:25:46;11.10;99.90
580;DHT22;276;48.392;9.950;2022-11-15T00:28:12;11.00;99.90
580;DHT22;276;48.392;9.950;2022-11-15T00:30:37;11.10;99.90
580;DHT22;276;48.392;9.950;2022-11-15T00:33:06;11.10;99.90
580;DHT22;276;48.392;9.950;2022-11-15T00:35:33;11.10;99.90
580;DHT22;276;48.392;9.950;2022-11-15T00:38:00;11.00;99.90
580;DHT22;276;48.392;9.950;2022-11-15T00:40:26;11.00;99.90
580;DHT22;276;48.392;9.950;2022-11-15T00:42:51;11.00;99.90
580;DHT22;276;48.392;9.950;2022-11-15T00:45:19;10.90;99.90
580;DHT22;276;48.392;9.950;2022-11-15T00:47:45;10.90;99.90
580;DHT22;276;48.392;9.950;2022-11-15T00:50:12;10.90;99.90
580;DHT22;276;48.392;9.950;2022-11-15T00:52:38;10.90;99.90
580;DHT22;276;48.392;9.950;2022-11-15T00:55:03;10.90;99.90
580;DHT22;276;48.392;9.950;2022-11-15T00:57:29;10.90;99.90
580;DHT22;276;48.392;9.950;2022-11-15T00:59:55;10.90;99.90
580;DHT22;276;48.392;9.950;2022-11-15T01:02:20;10.90;99.90
580;DHT22;276;48.392;9.950;2022-11-15T01:04:48;10.90;99.90
580;DHT22;276;48.392;9.950;2022-11-15T01:07:18;10.80;99.90
580;DHT22;276;48.392;9.950;2022-11-15T01:09:44;10.80;99.90
580;DHT22;276;48.392;9.950;2022-11-15T01:12:10;10.80;99.90
580;DHT22;276;48.392;9.950;2022-11-15T01:14:35;10.80;99.90
580;DHT22;276;48.392;9.950;2022-11-15T01:17:01;10.80;99.90
580;DHT22;276;48.392;9.950;2022-11-15T01:19:26;10.80;99.90
580;DHT22;276;48.392;9.950;2022-11-15T01:21:52;10.80;99.90
580;DHT22;276;48.392;9.950;2022-11-15T01:24:18;10.80;99.90
580;DHT22;276;48.392;9.950;2022-11-15T01:26:45;10.70;99.90
580;DHT22;276;48.392;9.950;2022-11-15T01:29:11;10.70;99.90
580;DHT22;276;48.392;9.950;2022-11-15T01:31:37;10.70;99.90
580;DHT22;276;48.392;9.950;2022-11-15T01:34:03;10.70;99.90
580;DHT22;276;48.392;9.950;2022-11-15T01:36:28;10.70;99.90
580;DHT22;276;48.392;9.950;2022-11-15T01:38:58;10.70;99.90
580;DHT22;276;48.392;9.950;2022-11-15T01:41:29;10.70;99.90
580;DHT22;276;48.392;9.950;2022-11-15T01:44:43;10.70;99.90
580;DHT22;276;48.392;9.950;2022-11-15T01:46:47;10.70;99.90
580;DHT22;276;48.392;9.950;2022-11-15T01:49:17;10.70;99.90
580;DHT22;276;48.392;9.950;2022-11-15T01:51:45;10.70;99.90
580;DHT22;276;48.392;9.950;2022-11-15T01:54:18;10.60;99.90
580;DHT22;276;48.392;9.950;2022-11-15T01:57:06;10.60;99.90
580;DHT22;276;48.392;9.950;2022-11-15T01:59:39;10.50;99.90
580;DHT22;276;48.392;9.950;2022-11-15T02:02:06;10.50;99.90
580;DHT22;276;48.392;9.950;2022-11-15T02:04:34;10.50;99.90
580;DHT22;276;48.392;9.950;2022-11-15T02:07:03;10.50;99.90
580;DHT22;276;48.392;9.950;2022-11-15T02:09:32;10.50;99.90
580;DHT22;276;48.392;9.950;2022-11-15T02:12:01;10.50;99.90
580;DHT22;276;48.392;9.950;2022-11-15T02:14:27;10.40;99.90
580;DHT22;276;48.392;9.950;2022-11-15T02:17:02;10.40;99.90
580;DHT22;276;48.392;9.950;2022-11-15T02:41:11;10.20;99.90
580;DHT22;276;48.392;9.950;2022-11-15T02:46:42;10.10;99.90
580;DHT22;276;48.392;9.950;2022-11-15T02:49:33;10.10;99.90
580;DHT22;276;48.392;9.950;2022-11-15T02:51:59;10.10;99.90
580;DHT22;276;48.392;9.950;2022-11-15T02:54:30;10.10;99.90
580;DHT22;276;48.392;9.950;2022-11-15T02:57:01;10.10;99.90
580;DHT22;276;48.392;9.950;2022-11-15T03:02:08;10.00;99.90
580;DHT22;276;48.392;9.950;2022-11-15T03:07:35;10.00;99.90
580;DHT22;276;48.392;9.950;2022-11-15T03:10:16;10.00;99.90
580;DHT22;276;48.392;9.950;2022-11-15T03:13:02;9.90;99.90
580;DHT22;276;48.392;9.950;2022-11-15T03:15:38;9.90;99.90
580;DHT22;276;48.392;9.950;2022-11-15T03:18:27;10.00;99.90
580;DHT22;276;48.392;9.950;2022-11-15T03:20:55;9.90;99.90
580;DHT22;276;48.392;9.950;2022-11-15T03:23:26;9.90;99.90
580;DHT22;276;48.392;9.950;2022-11-15T03:25:55;9.90;99.90
580;DHT22;276;48.392;9.950;2022-11-15T03:28:31;9.90;99.90
580;DHT22;276;48.392;9.950;2022-11-15T03:30:59;9.90;99.90
580;DHT22;276;48.392;9.950;2022-11-15T03:33:46;9.80;99.90
580;DHT22;276;48.392;9.950;2022-11-15T03:36:12;9.80;99.90
580;DHT22;276;48.392;9.950;2022-11-15T03:38:38;9.80;99.90
580;DHT22;276;48.392;9.950;2022-11-15T03:41:16;9.80;99.90
580;DHT22;276;48.392;9.950;2022-11-15T03:44:04;9.70;99.90
580;DHT22;276;48.392;9.950;2022-11-15T03:46:42;9.70;99.90
580;DHT22;276;48.392;9.950;2022-11-15T03:49:22;9.70;99.90
580;DHT22;276;48.392;9.950;2022-11-15T03:51:51;9.70;99.90
580;DHT22;276;48.392;9.950;2022-11-15T03:54:16;9.70;99.90
580;DHT22;276;48.392;9.950;2022-11-15T03:56:42;9.70;99.90
580;DHT22;276;48.392;9.950;2022-11-15T03:59:07;9.70;99.90
580;DHT22;276;48.392;9.950;2022-11-15T04:01:38;9.70;99.90
580;DHT22;276;48.392;9.950;2022-11-15T04:04:08;9.70;99.90
580;DHT22;276;48.392;9.950;2022-11-15T04:06:34;9.70;99.90
580;DHT22;276;48.392;9.950;2022-11-15T04:09:05;9.60;99.90
580;DHT22;276;48.392;9.950;2022-11-15T04:11:35;9.60;99.90
580;DHT22;276;48.392;9.950;2022-11-15T04:14:01;9.60;99.90
580;DHT22;276;48.392;9.950;2022-11-15T04:16:26;9.60;99.90
580;DHT22;276;48.392;9.950;2022-11-15T04:18:54;9.60;99.90
580;DHT22;276;48.392;9.950;2022-11-15T04:21:38;9.50;99.90
580;DHT22;276;48.392;9.950;2022-11-15T04:24:22;9.50;99.90
580;DHT22;276;48.392;9.950;2022-11-15T04:26:50;9.50;99.90
580;DHT22;276;48.392;9.950;2022-11-15T04:29:16;9.50;99.90
580;DHT22;276;48.392;9.950;2022-11-15T04:32:00;9.50;99.90
580;DHT22;276;48.392;9.950;2022-11-15T04:34:26;9.50;99.90
580;DHT22;276;48.392;9.950;2022-11-15T04:36:54;9.60;99.90
580;DHT22;276;48.392;9.950;2022-11-15T04:39:41;9.60;99.90
580;DHT22;276;48.392;9.950;2022-11-15T04:42:07;9.60;99.90
580;DHT22;276;48.392;9.950;2022-11-15T04:44:35;9.60;99.90
580;DHT22;276;48.392;9.950;2022-11-15T04:47:04;9.60;99.90
580;DHT22;276;48.392;9.950;2022-11-15T04:49:32;9.60;99.90
580;DHT22;276;48.392;9.950;2022-11-15T04:52:00;9.60;99.90
580;DHT22;276;48.392;9.950;2022-11-15T04:54:28;9.60;99.90
580;DHT22;276;48.392;9.950;2022-11-15T04:56:53;9.60;99.90
580;DHT22;276;48.392;9.950;2022-11-15T04:59:19;9.70;99.90
580;DHT22;276;48.392;9.950;2022-11-15T05:01:45;9.60;99.90
580;DHT22;276;48.392;9.950;2022-11-15T05:04:13;9.70;99.90
580;DHT22;276;48.392;9.950;2022-11-15T05:06:46;9.70;99.90
580;DHT22;276;48.392;9.950;2022-11-15T05:09:12;9.70;99.90
580;DHT22;276;48.392;9.950;2022-11-15T05:11:39;9.70;99.90
580;DHT22;276;48.392;9.950;2022-11-15T05:14:04;9.70;99.90
580;DHT22;276;48.392;9.950;2022-11-15T05:16:30;9.70;99.90
580;DHT22;276;48.392;9.950;2022-11-15T05:18:56;9.70;99.90
580;DHT22;276;48.392;9.950;2022-11-15T05:21:22;9.70;99.90
580;DHT22;276;48.392;9.950;2022-11-15T05:23:47;9.70;99.90
580;DHT22;276;48.392;9.950;2022-11-15T05:26:15;9.70;99.90
580;DHT22;276;48.392;9.950;2022-11-15T05:28:41;9.70;99.90
580;DHT22;276;48.392;9.950;2022-11-15T05:31:12;9.70;99.90
580;DHT22;276;48.392;9.950;2022-11-15T05:33:41;9.70;99.90
580;DHT22;276;48.392;9.950;2022-11-15T05:36:16;9.70;99.90
580;DHT22;276;48.392;9.950;2022-11-15T05:38:44;9.70;99.90
580;DHT22;276;48.392;9.950;2022-11-15T05:41:13;9.70;99.90
580;DHT22;276;48.392;9.950;2022-11-15T05:43:43;9.70;99.90
580;DHT22;276;48.392;9.950;2022-11-15T05:46:12;9.70;99.90
580;DHT22;276;48.392;9.950;2022-11-15T05:48:41;9.70;99.90
580;DHT22;276;48.392;9.950;2022-11-15T05:51:09;9.70;99.90
580;DHT22;276;48.392;9.950;2022-11-15T05:53:39;9.80;99.90
580;DHT22;276;48.392;9.950;2022-11-15T05:56:05;9.80;99.90
580;DHT22;276;48.392;9.950;2022-11-15T05:58:34;9.80;99.90
580;DHT22;276;48.392;9.950;2022-11-15T06:01:00;9.80;99.90
580;DHT22;276;48.392;9.950;2022-11-15T06:03:26;9.80;99.90
580;DHT22;276;48.392;9.950;2022-11-15T06:05:54;9.90;99.90
580;DHT22;276;48.392;9.950;2022-11-15T06:08:20;9.90;99.90
580;DHT22;276;48.392;9.950;2022-11-15T06:10:48;9.90;99.90
580;DHT22;276;48.392;9.950;2022-11-15T06:13:13;10.00;99.90
580;DHT22;276;48.392;9.950;2022-11-15T06:15:39;10.00;99.90
580;DHT22;276;48.392;9.950;2022-11-15T06:18:07;10.00;99.90
580;DHT22;276;48.392;9.950;2022-11-15T06:20:35;10.00;99.90
580;DHT22;276;48.392;9.950;2022-11-15T06:23:02;10.00;99.90
580;DHT22;276;48.392;9.950;2022-11-15T06:25:29;10.00;99.90
580;DHT22;276;48.392;9.950;2022-11-15T06:27:56;10.00;99.90
580;DHT22;276;48.392;9.950;2022-11-15T06:30:23;10.00;99.90
580;DHT22;276;48.392;9.950;2022-11-15T06:32:59;10.00;99.90
580;DHT22;276;48.392;9.950;2022-11-15T06:35:27;10.10;99.90
580;DHT22;276;48.392;9.950;2022-11-15T06:37:55;10.10;99.90
580;DHT22;276;48.392;9.950;2022-11-15T06:40:20;10.10;99.90
580;DHT22;276;48.392;9.950;2022-11-15T06:42:46;10.10;99.90
580;DHT22;276;48.392;9.950;2022-11-15T06:45:12;10.10;99.90
580;DHT22;276;48.392;9.950;2022-11-15T06:47:47;10.10;99.90
580;DHT22;276;48.392;9.950;2022-11-15T06:50:13;10.10;99.90
580;DHT22;276;48.392;9.950;2022-11-15T06:52:41;10.10;99.90
580;DHT22;276;48.392;9.950;2022-11-15T06:55:07;10.10;99.90
580;DHT22;276;48.392;9.950;2022-11-15T06:57:33;10.10;99.90
580;DHT22;276;48.392;9.950;2022-11-15T06:59:59;10.10;99.90
580;DHT22;276;48.392;9.950;2022-11-15T07:02:24;10.10;99.90
580;DHT22;276;48.392;9.950;2022-11-15T07:04:50;10.10;99.90
580;DHT22;276;48.392;9.950;2022-11-15T07:07:15;10.20;99.90
580;DHT22;276;48.392;9.950;2022-11-15T07:09:41;10.20;99.90
580;DHT22;276;48.392;9.950;2022-11-15T07:12:09;10.20;99.90
580;DHT22;276;48.392;9.950;2022-11-15T07:14:35;10.20;99.90
580;DHT22;276;48.392;9.950;2022-11-15T07:17:03;10.20;99.90
580;DHT22;276;48.392;9.950;2022-11-15T07:19:29;10.30;99.90
580;DHT22;276;48.392;9.950;2022-11-15T07:21:57;10.30;99.90
580;DHT22;276;48.392;9.950;2022-11-15T07:24:25;10.30;99.90
580;DHT22;276;48.392;9.950;2022-11-15T07:26:51;10.30;99.90
580;DHT22;276;48.392;9.950;2022-11-15T07:29:16;10.30;99.90
580;DHT22;276;48.392;9.950;2022-11-15T07:31:44;10.30;99.90
580;DHT22;276;48.392;9.950;2022-11-15T07:34:12;10.30;99.90
580;DHT22;276;48.392;9.950;2022-11-15T07:36:38;10.40;99.90
580;DHT22;276;48.392;9.950;2022-11-15T07:39:03;10.40;99.90
580;DHT22;276;48.392;9.950;2022-11-15T07:41:29;10.40;99.90
580;DHT22;276;48.392;9.950;2022-11-15T07:43:55;10.50;99.90
580;DHT22;276;48.392;9.950;2022-11-15T07:46:20;10.50;99.90
580;DHT22;276;48.392;9.950;2022-11-15T07:48:49;10.50;99.90
580;DHT22;276;48.392;9.950;2022-11-15T07:51:16;10.50;99.90
580;DHT22;276;48.392;9.950;2022-11-15T07:53:44;10.60;99.90
580;DHT22;276;48.392;9.950;2022-11-15T07:56:10;10.60;99.90
580;DHT22;276;48.392;9.950;2022-11-15T07:58:38;10.60;99.90
580;DHT22;276;48.392;9.950;2022-11-15T08:01:08;10.70;99.90
580;DHT22;276;48.392;9.950;2022-11-15T08:03:36;10.70;99.90
580;DHT22;276;48.392;9.950;2022-11-15T08:06:04;10.70;99.90
580;DHT22;276;48.392;9.950;2022-11-15T08:08:30;10.80;99.90
580;DHT22;276;48.392;9.950;2022-11-15T08:10:58;10.80;99.90
580;DHT22;276;48.392;9.950;2022-11-15T08:13:29;10.80;99.90
580;DHT22;276;48.392;9.950;2022-11-15T08:16:01;10.80;99.90
580;DHT22;276;48.392;9.950;2022-11-15T08:18:28;10.80;99.90
580;DHT22;276;48.392;9.950;2022-11-15T08:20:59;10.90;99.90
580;DHT22;276;48.392;9.950;2022-11-15T08:23:25;10.90;99.90
580;DHT22;276;48.392;9.950;2022-11-15T08:25:53;11.00;99.90
580;DHT22;276;48.392;9.950;2022-11-15T08:28:23;11.10;99.90
580;DHT22;276;48.392;9.950;2022-11-15T08:30:51;11.20;99.90
580;DHT22;276;48.392;9.950;2022-11-15T08:33:17;11.20;99.90
580;DHT22;276;48.392;9.950;2022-11-15T08:35:43;11.30;99.90
580;DHT22;276;48.392;9.950;2022-11-15T08:38:09;11.40;99.90
580;DHT22;276;48.392;9.950;2022-11-15T08:40:37;11.60;99.90
580;DHT22;276;48.392;9.950;2022-11-15T08:43:03;11.70;99.90
580;DHT22;276;48.392;9.950;2022-11-15T08:45:33;11.80;99.90
580;DHT22;276;48.392;9.950;2022-11-15T08:48:01;11.90;99.90
580;DHT22;276;48.392;9.950;2022-11-15T08:50:27;12.00;99.90
580;DHT22;276;48.392;9.950;2022-11-15T08:52:55;12.20;99.90
580;DHT22;276;48.392;9.950;2022-11-15T08:55:23;12.60;99.90
580;DHT22;276;48.392;9.950;2022-11-15T08:57:53;13.10;99.90
580;DHT22;276;48.392;9.950;2022-11-15T09:00:24;13.60;99.90
580;DHT22;276;48.392;9.950;2022-11-15T09:02:52;14.00;99.90
580;DHT22;276;48.392;9.950;2022-11-15T09:05:20;14.40;99.90
580;DHT22;276;48.392;9.950;2022-11-15T09:07:46;14.80;99.90
580;DHT22;276;48.392;9.950;2022-11-15T09:10:11;15.20;99.90
580;DHT22;276;48.392;9.950;2022-11-15T09:12:39;15.40;99.90
580;DHT22;276;48.392;9.950;2022-11-15T09:15:11;15.70;99.90
580;DHT22;276;48.392;9.950;2022-11-15T09:17:36;15.80;99.90
580;DHT22;276;48.392;9.950;2022-11-15T09:20:05;16.00;99.90
580;DHT22;276;48.392;9.950;2022-11-15T09:22:31;16.20;99.90
580;DHT22;276;48.392;9.950;2022-11-15T09:24:56;16.30;99.90
580;DHT22;276;48.392;9.950;2022-11-15T09:27:22;16.30;99.90
580;DHT22;276;48.392;9.950;2022-11-15T09:29:50;16.30;99.90
580;DHT22;276;48.392;9.950;2022-11-15T09:32:18;16.20;99.90
580;DHT22;276;48.392;9.950;2022-11-15T09:34:46;16.00;99.90
580;DHT22;276;48.392;9.950;2022-11-15T09:37:11;15.80;99.90
580;DHT22;276;48.392;9.950;2022-11-15T09:39:37;15.50;99.90
580;DHT22;276;48.392;9.950;2022-11-15T09:50:12;16.20;99.90
580;DHT22;276;48.392;9.950;2022-11-15T09:52:41;16.60;99.90
580;DHT22;276;48.392;9.950;2022-11-15T09:55:14;17.20;99.90
580;DHT22;276;48.392;9.950;2022-11-15T10:00:44;18.50;99.40
580;DHT22;276;48.392;9.950;2022-11-15T10:03:30;19.00;98.30
580;DHT22;276;48.392;9.950;2022-11-15T10:06:01;19.50;96.90
580;DHT22;276;48.392;9.950;2022-11-15T10:09:03;19.70;96.20
580;DHT22;276;48.392;9.950;2022-11-15T10:11:35;20.40;95.30
580;DHT22;276;48.392;9.950;2022-11-15T10:14:08;21.30;94.10
580;DHT22;276;48.392;9.950;2022-11-15T10:19:42;22.80;91.10
580;DHT22;276;48.392;9.950;2022-11-15T10:24:46;24.40;85.70
580;DHT22;276;48.392;9.950;2022-11-15T10:27:17;25.10;82.20
580;DHT22;276;48.392;9.950;2022-11-15T10:29:48;25.70;79.30
580;DHT22;276;48.392;9.950;2022-11-15T10:32:17;26.20;75.70
580;DHT22;276;48.392;9.950;2022-11-15T10:34:43;26.90;72.80
580;DHT22;276;48.392;9.950;2022-11-15T10:37:09;27.40;70.20
580;DHT22;276;48.392;9.950;2022-11-15T10:39:39;27.90;66.50
580;DHT22;276;48.392;9.950;2022-11-15T10:42:16;28.50;63.80
580;DHT22;276;48.392;9.950;2022-11-15T10:44:44;29.10;60.70
580;DHT22;276;48.392;9.950;2022-11-15T10:47:28;29.60;58.50
580;DHT22;276;48.392;9.950;2022-11-15T10:50:02;30.10;57.00
580;DHT22;276;48.392;9.950;2022-11-15T10:52:30;30.50;55.10
580;DHT22;276;48.392;9.950;2022-11-15T10:57:47;30.30;51.70
580;DHT22;276;48.392;9.950;2022-11-15T11:06:07;30.20;52.00
580;DHT22;276;48.392;9.950;2022-11-15T11:08:35;30.60;51.60
580;DHT22;276;48.392;9.950;2022-11-15T11:11:05;31.20;51.20
580;DHT22;276;48.392;9.950;2022-11-15T11:13:38;31.60;50.50
580;DHT22;276;48.392;9.950;2022-11-15T11:16:38;31.90;49.60
580;DHT22;276;48.392;9.950;2022-11-15T11:21:57;32.40;48.20
580;DHT22;276;48.392;9.950;2022-11-15T11:27:41;33.00;46.80
580;DHT22;276;48.392;9.950;2022-11-15T11:30:14;32.80;46.40
580;DHT22;276;48.392;9.950;2022-11-15T11:32:49;32.70;46.10
580;DHT22;276;48.392;9.950;2022-11-15T11:35:29;32.20;46.20
580;DHT22;276;48.392;9.950;2022-11-15T11:38:23;31.90;46.20
580;DHT22;276;48.392;9.950;2022-11-15T11:49:08;31.20;47.70
580;DHT22;276;48.392;9.950;2022-11-15T11:51:42;31.80;47.10
580;DHT22;276;48.392;9.950;2022-11-15T11:56:50;33.10;44.70
580;DHT22;276;48.392;9.950;2022-11-15T11:59:31;33.30;43.20
580;DHT22;276;48.392;9.950;2022-11-15T12:02:02;33.20;42.80
580;DHT22;276;48.392;9.950;2022-11-15T12:04:41;33.00;43.70
580;DHT22;276;48.392;9.950;2022-11-15T12:07:15;33.10;43.90
580;DHT22;276;48.392;9.950;2022-11-15T12:12:31;32.60;44.40
580;DHT22;276;48.392;9.950;2022-11-15T12:17:40;30.50;46.30
580;DHT22;276;48.392;9.950;2022-11-15T12:20:34;29.50;47.20
580;DHT22;276;48.392;9.950;2022-11-15T12:23:07;28.70;48.90
580;DHT22;276;48.392;9.950;2022-11-15T12:25:46;27.80;50.70
580;DHT22;276;48.392;9.950;2022-11-15T12:41:29;21.40;63.00
580;DHT22;276;48.392;9.950;2022-11-15T12:44:00;20.80;64.60
580;DHT22;276;48.392;9.950;2022-11-15T12:59:54;18.00;75.80
580;DHT22;276;48.392;9.950;2022-11-15T13:02:41;17.70;78.70
580;DHT22;276;48.392;9.950;2022-11-15T13:08:03;16.90;84.40
580;DHT22;276;48.392;9.950;2022-11-15T13:10:33;16.50;87.10
580;DHT22;276;48.392;9.950;2022-11-15T13:13:01;16.30;89.40
580;DHT22;276;48.392;9.950;2022-11-15T13:15:51;16.00;90.90
580;DHT22;276;48.392;9.950;2022-11-15T13:18:29;15.80;91.80
580;DHT22;276;48.392;9.950;2022-11-15T13:21:01;15.60;92.90
580;DHT22;276;48.392;9.950;2022-11-15T13:23:52;15.40;94.10
580;DHT22;276;48.392;9.950;2022-11-15T13:26:18;15.00;95.50
580;DHT22;276;48.392;9.950;2022-11-15T13:28:47;14.90;96.40
580;DHT22;276;48.392;9.950;2022-11-15T13:31:36;14.70;97.40
580;DHT22;276;48.392;9.950;2022-11-15T13:36:53;14.50;99.00
580;DHT22;276;48.392;9.950;2022-11-15T13:41:55;14.20;99.90
580;DHT22;276;48.392;9.950;2022-11-15T13:44:26;14.20;99.90
580;DHT22;276;48.392;9.950;2022-11-15T13:49:33;14.30;99.90
580;DHT22;276;48.392;9.950;2022-11-15T13:52:05;14.20;99.90
580;DHT22;276;48.392;9.950;2022-11-15T13:57:08;14.20;99.90
580;DHT22;276;48.392;9.950;2022-11-15T13:59:43;14.30;99.90
580;DHT22;276;48.392;9.950;2022-11-15T14:02:16;14.30;99.90
580;DHT22;276;48.392;9.950;2022-11-15T14:04:53;14.40;99.90
580;DHT22;276;48.392;9.950;2022-11-15T14:07:21;14.50;99.90
580;DHT22;276;48.392;9.950;2022-11-15T14:09:47;14.40;99.90
580;DHT22;276;48.392;9.950;2022-11-15T14:12:31;14.50;99.90
580;DHT22;276;48.392;9.950;2022-11-15T14:17:46;14.50;99.90
580;DHT22;276;48.392;9.950;2022-11-15T14:20:31;14.50;99.90
580;DHT22;276;48.392;9.950;2022-11-15T14:23:03;14.60;99.90
580;DHT22;276;48.392;9.950;2022-11-15T14:25:33;14.60;99.90
580;DHT22;276;48.392;9.950;2022-11-15T14:28:16;14.50;99.90
580;DHT22;276;48.392;9.950;2022-11-15T14:30:58;14.40;99.90
580;DHT22;276;48.392;9.950;2022-11-15T14:33:34;14.40;99.90
580;DHT22;276;48.392;9.950;2022-11-15T14:36:20;14.40;99.90
580;DHT22;276;48.392;9.950;2022-11-15T14:38:50;14.40;99.90
580;DHT22;276;48.392;9.950;2022-11-15T14:41:22;14.30;99.90
580;DHT22;276;48.392;9.950;2022-11-15T14:43:53;14.30;99.90
580;DHT22;276;48.392;9.950;2022-11-15T14:46:21;14.30;99.90
580;DHT22;276;48.392;9.950;2022-11-15T14:48:49;14.30;99.90
580;DHT22;276;48.392;9.950;2022-11-15T14:51:17;14.40;99.90
580;DHT22;276;48.392;9.950;2022-11-15T14:53:44;14.30;99.90
580;DHT22;276;48.392;9.950;2022-11-15T14:56:13;14.30;99.90
580;DHT22;276;48.392;9.950;2022-11-15T14:58:42;14.20;99.90
580;DHT22;276;48.392;9.950;2022-11-15T15:01:20;14.20;99.90
580;DHT22;276;48.392;9.950;2022-11-15T15:03:45;14.20;99.90
580;DHT22;276;48.392;9.950;2022-11-15T15:06:13;14.20;99.90
580;DHT22;276;48.392;9.950;2022-11-15T15:08:40;14.20;99.90
580;DHT22;276;48.392;9.950;2022-11-15T15:11:21;14.30;99.90
580;DHT22;276;48.392;9.950;2022-11-15T15:13:50;14.30;99.90
580;DHT22;276;48.392;9.950;2022-11-15T15:16:19;14.30;99.90
580;DHT22;276;48.392;9.950;2022-11-15T15:18:47;14.30;99.90
580;DHT22;276;48.392;9.950;2022-11-15T15:21:28;14.30;99.90
580;DHT22;276;48.392;9.950;2022-11-15T15:23:54;14.30;99.90
580;DHT22;276;48.392;9.950;2022-11-15T15:26:20;14.30;99.90
580;DHT22;276;48.392;9.950;2022-11-15T15:28:49;14.30;99.90
580;DHT22;276;48.392;9.950;2022-11-15T15:31:16;14.30;99.90
580;DHT22;276;48.392;9.950;2022-11-15T15:33:46;14.30;99.90
580;DHT22;276;48.392;9.950;2022-11-15T15:36:13;14.30;99.90
580;DHT22;276;48.392;9.950;2022-11-15T15:38:39;14.20;99.90
580;DHT22;276;48.392;9.950;2022-11-15T15:41:14;14.20;99.90
580;DHT22;276;48.392;9.950;2022-11-15T15:43:40;14.20;99.90
580;DHT22;276;48.392;9.950;2022-11-15T15:46:14;14.10;99.90
580;DHT22;276;48.392;9.950;2022-11-15T15:48:43;14.10;99.90
580;DHT22;276;48.392;9.950;2022-11-15T15:51:13;14.10;99.90
580;DHT22;276;48.392;9.950;2022-11-15T15:53:41;14.10;99.90
580;DHT22;276;48.392;9.950;2022-11-15T15:56:07;14.10;99.90
580;DHT22;276;48.392;9.950;2022-11-15T15:58:35;14.10;99.90
580;DHT22;276;48.392;9.950;2022-11-15T16:01:01;14.10;99.90
580;DHT22;276;48.392;9.950;2022-11-15T16:03:31;14.10;99.90
580;DHT22;276;48.392;9.950;2022-11-15T16:05:56;14.10;99.90
580;DHT22;276;48.392;9.950;2022-11-15T16:08:26;14.00;99.90
580;DHT22;276;48.392;9.950;2022-11-15T16:10:55;14.00;99.90
580;DHT22;276;48.392;9.950;2022-11-15T16:13:23;14.00;99.90
580;DHT22;276;48.392;9.950;2022-11-15T16:15:52;14.00;99.90
580;DHT22;276;48.392;9.950;2022-11-15T16:18:20;14.00;99.90
580;DHT22;276;48.392;9.950;2022-11-15T16:20:49;13.90;99.90
580;DHT22;276;48.392;9.950;2022-11-15T16:23:19;13.90;99.90
580;DHT22;276;48.392;9.950;2022-11-15T16:25:48;13.90;99.90
580;DHT22;276;48.392;9.950;2022-11-15T16:30:47;13.80;99.90
580;DHT22;276;48.392;9.950;2022-11-15T16:33:12;13.80;99.90
580;DHT22;276;48.392;9.950;2022-11-15T16:35:41;13.80;99.90
580;DHT22;276;48.392;9.950;2022-11-15T16:38:14;13.80;99.90
580;DHT22;276;48.392;9.950;2022-11-15T16:40:42;13.80;99.90
580;DHT22;276;48.392;9.950;2022-11-15T16:43:08;13.80;99.90
580;DHT22;276;48.392;9.950;2022-11-15T16:45:36;13.80;99.90
580;DHT22;276;48.392;9.950;2022-11-15T16:48:02;13.70;99.90
580;DHT22;276;48.392;9.950;2022-11-15T16:50:30;13.70;99.90
580;DHT22;276;48.392;9.950;2022-11-15T16:53:01;13.70;99.90
580;DHT22;276;48.392;9.950;2022-11-15T16:55:28;13.70;99.90
580;DHT22;276;48.392;9.950;2022-11-15T16:57:55;13.70;99.90
580;DHT22;276;48.392;9.950;2022-11-15T17:00:26;13.70;99.90
580;DHT22;276;48.392;9.950;2022-11-15T17:02:54;13.60;99.90
580;DHT22;276;48.392;9.950;2022-11-15T17:05:21;13.60;99.90
580;DHT22;276;48.392;9.950;2022-11-15T17:07:49;13.60;99.90
580;DHT22;276;48.392;9.950;2022-11-15T17:10:16;13.60;99.90
580;DHT22;276;48.392;9.950;2022-11-15T17:12:42;13.50;99.90
580;DHT22;276;48.392;9.950;2022-11-15T17:15:11;13.50;99.90
580;DHT22;276;48.392;9.950;2022-11-15T17:17:37;13.50;99.90
580;DHT22;276;48.392;9.950;2022-11-15T17:20:03;13.50;99.90
580;DHT22;276;48.392;9.950;2022-11-15T17:22:30;13.50;99.90
580;DHT22;276;48.392;9.950;2022-11-15T17:24:56;13.50;99.90
580;DHT22;276;48.392;9.950;2022-11-15T17:27:21;13.40;99.90
580;DHT22;276;48.392;9.950;2022-11-15T17:29:50;13.40;99.90
580;DHT22;276;48.392;9.950;2022-11-15T17:32:16;13.40;99.90
580;DHT22;276;48.392;9.950;2022-11-15T17:34:41;13.40;99.90
580;DHT22;276;48.392;9.950;2022-11-15T17:37:07;13.40;99.90
580;DHT22;276;48.392;9.950;2022-11-15T17:39:32;13.40;99.90
580;DHT22;276;48.392;9.950;2022-11-15T17:41:58;13.40;99.90
580;DHT22;276;48.392;9.950;2022-11-15T17:44:24;13.30;99.90
580;DHT22;276;48.392;9.950;2022-11-15T17:46:54;13.30;99.90
580;DHT22;276;48.392;9.950;2022-11-15T17:49:21;13.30;99.90
580;DHT22;276;48.392;9.950;2022-11-15T17:51:47;13.30;99.90
580;DHT22;276;48.392;9.950;2022-11-15T17:54:12;13.30;99.90
580;DHT22;276;48.392;9.950;2022-11-15T17:56:41;13.30;99.90
580;DHT22;276;48.392;9.950;2022-11-15T17:59:08;13.30;99.90
580;DHT22;276;48.392;9.950;2022-11-15T18:01:35;13.30;99.90
580;DHT22;276;48.392;9.950;2022-11-15T18:04:03;13.30;99.90
580;DHT22;276;48.392;9.950;2022-11-15T18:06:32;13.30;99.90
580;DHT22;276;48.392;9.950;2022-11-15T18:08:58;13.30;99.90
580;DHT22;276;48.392;9.950;2022-11-15T18:11:27;13.30;99.90
580;DHT22;276;48.392;9.950;2022-11-15T18:13:58;13.20;99.90
580;DHT22;276;48.392;9.950;2022-11-15T18:16:26;13.20;99.90
580;DHT22;276;48.392;9.950;2022-11-15T18:18:52;13.20;99.90
580;DHT22;276;48.392;9.950;2022-11-15T18:21:21;13.20;99.90
580;DHT22;276;48.392;9.950;2022-11-15T18:23:48;13.20;99.90
580;DHT22;276;48.392;9.950;2022-11-15T18:26:16;13.20;99.90
580;DHT22;276;48.392;9.950;2022-11-15T18:28:46;13.20;99.90
580;DHT22;276;48.392;9.950;2022-11-15T18:31:22;13.20;99.90
580;DHT22;276;48.392;9.950;2022-11-15T18:33:50;13.20;99.90
580;DHT22;276;48.392;9.950;2022-11-15T18:36:19;13.20;99.90
580;DHT22;276;48.392;9.950;2022-11-15T18:38:45;13.20;99.90
580;DHT22;276;48.392;9.950;2022-11-15T18:41:18;13.20;99.90
580;DHT22;276;48.392;9.950;2022-11-15T18:43:51;13.20;99.90
580;DHT22;276;48.392;9.950;2022-11-15T18:46:21;13.20;99.90
580;DHT22;276;48.392;9.950;2022-11-15T18:48:49;13.20;99.90
580;DHT22;276;48.392;9.950;2022-11-15T18:51:25;13.20;99.90
580;DHT22;276;48.392;9.950;2022-11-15T18:53:53;13.20;99.90
580;DHT22;276;48.392;9.950;2022-11-15T18:56:23;13.20;99.90